Terminal Aerodrome Forecast
Issued by NWS Newport/Morehead City, NC

Home | Current Version | Previous Version | Text Only | Print | Product List | Glossary On
Versions: 1 2 3 4 5 6 7 8 9 10 11 12 13 14 15 16 17
763
FTUS42 KMHX 041140
TAFEWN
TAF
KEWN 041140Z 0412/0512 18008KT 3SM RA SCT007 OVC025
     FM041400 23008KT 4SM -RA OVC007
     FM041700 01009G15KT 4SM -RA OVC007
     FM050000 03009KT 4SM -RA BR OVC005
     FM050600 36015G22KT 6SM -RA BR OVC007=

USA.gov is the U.S. government's official web portal to all federal, state and local government web resources and services.